PWSweather.com
Personal Weather Stations
Station Observations
MACKBIG
Historic Main Street, Unionville, ON L3R6A5

Historic Main StreetUnionville, ON L3R6A5

Lat: 43.875506, Lon: -79.312903

Elevation: 590

Station Type: Davis VP2 + 6163

http://www.mackweather.com

Latest ConditionsUpdated 12:50:06 PM EDT Wednesday, Jul 1, 2015
Currently Today's Max Today's Min Today's Average
Temperature 71.1°F21.7°C 71.1°F21.7°C 61.5°F16.4°C 63.4°F17.4°C
Dew Point 61.6°F16.4°C 61.6°F16.4°C 59.5°F15.3°C 60.2°F15.7°C
Winds 5.0 mph W8.0 kmh W 12.0 mph NW19.3 kmh NW - 1.9 mph 3.1 kmh
Wind Gusts 6.0 mph9.7 kmh 25.0 mph40.2 kmh - -
Humidity 72% 95% 72% 90%
Pressure 29.72 in1006.4 mb 29.72 in1006.4 mb 29.65 in1004.1 mb -
Hour Temp Dew Point Humidity Winds Wind Gusts Pressure Precip Precip Rate Daily Precip Total
12:50 PM 71.1°F21.7°C 61.6°F16.4°C 72% 5.0 mph W8.0 kmh W 6.0 mph9.7 kmh 29.72 in1006.4 mb - 0.00 in0.0 mm 0.00 in0.0 mm
12:40 PM 70.2°F21.2°C 60.7°F15.9°C 72% 6.0 mph NW9.7 kmh NW 8.0 mph12.9 kmh 29.72 in1006.4 mb - 0.00 in0.0 mm 0.00 in0.0 mm
12:30 PM 69.6°F20.9°C 60.9°F16.1°C 74% 5.0 mph NW8.0 kmh NW 15.0 mph24.1 kmh 29.72 in1006.4 mb - 0.00 in0.0 mm 0.00 in0.0 mm
12:20 PM 69.5°F20.8°C 60.5°F15.8°C 73% 8.0 mph NW12.9 kmh NW 12.0 mph19.3 kmh 29.72 in1006.4 mb - 0.00 in0.0 mm 0.00 in0.0 mm
12:10 PM 69.2°F20.7°C 60.6°F15.9°C 74% 3.0 mph N4.8 kmh N 17.0 mph27.4 kmh 29.71 in1006.1 mb - 0.00 in0.0 mm 0.00 in0.0 mm
12:00 PM 69.1°F20.6°C 60.5°F15.8°C 74% 3.0 mph NW4.8 kmh NW 14.0 mph22.5 kmh 29.71 in1006.1 mb - 0.00 in0.0 mm 0.00 in0.0 mm
11:50 AM 69.1°F20.6°C 60.8°F16.0°C 75% 10.0 mph NW16.1 kmh NW 25.0 mph40.2 kmh 29.71 in1006.1 mb - 0.00 in0.0 mm 0.00 in0.0 mm
11:40 AM 68.8°F20.4°C 61.3°F16.3°C 77% 12.0 mph NW19.3 kmh NW 17.0 mph27.4 kmh 29.71 in1006.1 mb - 0.00 in0.0 mm 0.00 in0.0 mm
11:30 AM 68.4°F20.2°C 61.3°F16.3°C 78% 6.0 mph NW9.7 kmh NW 15.0 mph24.1 kmh 29.70 in1005.8 mb - 0.00 in0.0 mm 0.00 in0.0 mm
11:20 AM 67.5°F19.7°C 60.8°F16.0°C 79% 8.0 mph NW12.9 kmh NW 16.0 mph25.7 kmh 29.70 in1005.8 mb - 0.00 in0.0 mm 0.00 in0.0 mm
11:10 AM 67.5°F19.7°C 61.1°F16.2°C 80% 7.0 mph NW11.3 kmh NW 20.0 mph32.2 kmh 29.70 in1005.8 mb - 0.00 in0.0 mm 0.00 in0.0 mm
11:00 AM 67.6°F19.8°C 60.5°F15.8°C 78% 9.0 mph WNW14.5 kmh WNW 13.0 mph20.9 kmh 29.69 in1005.4 mb - 0.00 in0.0 mm 0.00 in0.0 mm
10:50 AM 67.9°F19.9°C 61.5°F16.4°C 80% 10.0 mph NW16.1 kmh NW 16.0 mph25.7 kmh 29.69 in1005.4 mb - 0.00 in0.0 mm 0.00 in0.0 mm
10:40 AM 66.2°F19.0°C 60.9°F16.1°C 83% 1.0 mph NW1.6 kmh NW 6.0 mph9.7 kmh 29.68 in1005.1 mb - 0.00 in0.0 mm 0.00 in0.0 mm
10:30 AM 65.4°F18.6°C 59.8°F15.4°C 82% 5.0 mph NW8.0 kmh NW 9.0 mph14.5 kmh 29.68 in1005.1 mb - 0.00 in0.0 mm 0.00 in0.0 mm
10:20 AM 65.7°F18.7°C 60.1°F15.6°C 82% 7.0 mph W11.3 kmh W 18.0 mph29.0 kmh 29.68 in1005.1 mb - 0.00 in0.0 mm 0.00 in0.0 mm
10:10 AM 65.5°F18.6°C 60.2°F15.7°C 83% 2.0 mph NW3.2 kmh NW 3.0 mph4.8 kmh 29.68 in1005.1 mb - 0.00 in0.0 mm 0.00 in0.0 mm
10:00 AM 65.2°F18.4°C 60.2°F15.7°C 84% 7.0 mph NW11.3 kmh NW 14.0 mph22.5 kmh 29.68 in1005.1 mb - 0.00 in0.0 mm 0.00 in0.0 mm
09:50 AM 65.1°F18.4°C 60.2°F15.7°C 84% 2.0 mph NW3.2 kmh NW 3.0 mph4.8 kmh 29.68 in1005.1 mb - 0.00 in0.0 mm 0.00 in0.0 mm
09:40 AM 65.0°F18.3°C 60.4°F15.8°C 85% Calm Calm 1.0 mph1.6 kmh 29.68 in1005.1 mb - 0.00 in0.0 mm 0.00 in0.0 mm
09:30 AM 65.0°F18.3°C 60.7°F15.9°C 86% 3.0 mph NW4.8 kmh NW 17.0 mph27.4 kmh 29.68 in1005.1 mb - 0.00 in0.0 mm 0.00 in0.0 mm
09:20 AM 64.2°F17.9°C 60.6°F15.9°C 88% 6.0 mph WNW9.7 kmh WNW 8.0 mph12.9 kmh 29.68 in1005.1 mb - 0.00 in0.0 mm 0.00 in0.0 mm
09:10 AM 63.4°F17.4°C 60.1°F15.6°C 89% 3.0 mph NW4.8 kmh NW 12.0 mph19.3 kmh 29.68 in1005.1 mb - 0.00 in0.0 mm 0.00 in0.0 mm
09:00 AM 63.0°F17.2°C 60.0°F15.6°C 90% 2.0 mph NW3.2 kmh NW 6.0 mph9.7 kmh 29.68 in1005.1 mb - 0.00 in0.0 mm 0.00 in0.0 mm
08:50 AM 63.0°F17.2°C 60.3°F15.7°C 91% 1.0 mph NW1.6 kmh NW 6.0 mph9.7 kmh 29.68 in1005.1 mb - 0.00 in0.0 mm 0.00 in0.0 mm
08:40 AM 63.0°F17.2°C 60.7°F15.9°C 92% 1.0 mph NW1.6 kmh NW 2.0 mph3.2 kmh 29.68 in1005.1 mb - 0.00 in0.0 mm 0.00 in0.0 mm
08:30 AM 62.5°F16.9°C 60.4°F15.8°C 93% 7.0 mph NW11.3 kmh NW 13.0 mph20.9 kmh 29.68 in1005.1 mb - 0.00 in0.0 mm 0.00 in0.0 mm
08:20 AM 62.4°F16.9°C 60.7°F15.9°C 94% 3.0 mph WNW4.8 kmh WNW 9.0 mph14.5 kmh 29.67 in1004.7 mb - 0.00 in0.0 mm 0.00 in0.0 mm
08:10 AM 62.1°F16.7°C 60.7°F15.9°C 95% 1.0 mph NW1.6 kmh NW 3.0 mph4.8 kmh 29.67 in1004.7 mb - 0.00 in0.0 mm 0.00 in0.0 mm
08:00 AM 61.7°F16.5°C 60.0°F15.6°C 94% 2.0 mph NW3.2 kmh NW 5.0 mph8.0 kmh 29.67 in1004.7 mb - 0.00 in0.0 mm 0.00 in0.0 mm
07:50 AM 61.5°F16.4°C 59.8°F15.4°C 94% 1.0 mph NW1.6 kmh NW 3.0 mph4.8 kmh 29.67 in1004.7 mb - 0.00 in0.0 mm 0.00 in0.0 mm
07:40 AM 61.7°F16.5°C 59.9°F15.5°C 94% 1.0 mph WNW1.6 kmh WNW 7.0 mph11.3 kmh 29.68 in1005.1 mb - 0.00 in0.0 mm 0.00 in0.0 mm
07:30 AM 62.0°F16.7°C 60.2°F15.7°C 94% Calm Calm -- 29.68 in1005.1 mb - 0.00 in0.0 mm 0.00 in0.0 mm
07:20 AM 62.2°F16.8°C 60.8°F16.0°C 95% 3.0 mph NW4.8 kmh NW 6.0 mph9.7 kmh 29.67 in1004.7 mb - 0.00 in0.0 mm 0.00 in0.0 mm
07:10 AM 62.3°F16.8°C 60.8°F16.0°C 95% 2.0 mph WSW3.2 kmh WSW 3.0 mph4.8 kmh 29.67 in1004.7 mb - 0.00 in0.0 mm 0.00 in0.0 mm
07:00 AM 62.3°F16.8°C 60.8°F16.0°C 95% Calm Calm -- 29.67 in1004.7 mb - 0.00 in0.0 mm 0.00 in0.0 mm
06:50 AM 62.3°F16.8°C 60.8°F16.0°C 95% Calm Calm -- 29.66 in1004.4 mb - 0.00 in0.0 mm 0.00 in0.0 mm
06:40 AM 62.2°F16.8°C 60.8°F16.0°C 95% Calm Calm -- 29.67 in1004.7 mb - 0.00 in0.0 mm 0.00 in0.0 mm
06:30 AM 62.2°F16.8°C 60.8°F16.0°C 95% Calm Calm -- 29.67 in1004.7 mb - 0.00 in0.0 mm 0.00 in0.0 mm
06:20 AM 62.1°F16.7°C 60.7°F15.9°C 95% Calm Calm 2.0 mph3.2 kmh 29.67 in1004.7 mb - 0.00 in0.0 mm 0.00 in0.0 mm
06:10 AM 62.1°F16.7°C 60.7°F15.9°C 95% Calm Calm -- 29.66 in1004.4 mb - 0.00 in0.0 mm 0.00 in0.0 mm
06:00 AM 62.0°F16.7°C 60.3°F15.7°C 94% Calm Calm -- 29.66 in1004.4 mb 0.00 in0.0 mm 0.00 in0.0 mm 0.00 in0.0 mm
05:50 AM 61.9°F16.6°C 60.2°F15.7°C 94% Calm Calm -- 29.66 in1004.4 mb 0.00 in0.0 mm 0.00 in0.0 mm 0.00 in0.0 mm
05:40 AM 61.9°F16.6°C 60.2°F15.7°C 94% Calm Calm -- 29.66 in1004.4 mb 0.00 in0.0 mm 0.00 in0.0 mm 0.00 in0.0 mm
05:30 AM 61.8°F16.6°C 60.1°F15.6°C 94% Calm Calm -- 29.66 in1004.4 mb 0.00 in0.0 mm 0.00 in0.0 mm 0.00 in0.0 mm
05:20 AM 61.7°F16.5°C 60.0°F15.6°C 94% Calm Calm -- 29.66 in1004.4 mb 0.00 in0.0 mm 0.00 in0.0 mm 0.00 in0.0 mm
05:10 AM 61.7°F16.5°C 60.0°F15.6°C 94% Calm Calm -- 29.66 in1004.4 mb 0.00 in0.0 mm 0.00 in0.0 mm 0.00 in0.0 mm
05:00 AM 61.6°F16.4°C 59.9°F15.5°C 94% Calm Calm -- 29.65 in1004.1 mb 0.00 in0.0 mm 0.00 in0.0 mm 0.00 in0.0 mm
04:50 AM 61.6°F16.4°C 59.9°F15.5°C 94% Calm Calm -- 29.66 in1004.4 mb 0.00 in0.0 mm 0.00 in0.0 mm 0.00 in0.0 mm
04:40 AM 61.6°F16.4°C 59.9°F15.5°C 94% Calm Calm -- 29.66 in1004.4 mb 0.00 in0.0 mm 0.00 in0.0 mm 0.00 in0.0 mm
04:30 AM 61.6°F16.4°C 59.9°F15.5°C 94% Calm Calm -- 29.66 in1004.4 mb 0.00 in0.0 mm 0.00 in0.0 mm 0.00 in0.0 mm
04:20 AM 61.6°F16.4°C 59.9°F15.5°C 94% Calm Calm -- 29.66 in1004.4 mb 0.00 in0.0 mm 0.00 in0.0 mm 0.00 in0.0 mm
04:10 AM 61.6°F16.4°C 59.9°F15.5°C 94% Calm Calm -- 29.66 in1004.4 mb 0.00 in0.0 mm 0.00 in0.0 mm 0.00 in0.0 mm
04:00 AM 61.6°F16.4°C 59.9°F15.5°C 94% Calm Calm -- 29.67 in1004.7 mb 0.00 in0.0 mm 0.00 in0.0 mm 0.00 in0.0 mm
03:50 AM 61.6°F16.4°C 59.9°F15.5°C 94% Calm Calm -- 29.66 in1004.4 mb 0.00 in0.0 mm 0.00 in0.0 mm 0.00 in0.0 mm
03:40 AM 61.6°F16.4°C 59.9°F15.5°C 94% Calm Calm -- 29.67 in1004.7 mb 0.00 in0.0 mm 0.00 in0.0 mm 0.00 in0.0 mm
03:30 AM 61.5°F16.4°C 59.8°F15.4°C 94% Calm Calm -- 29.67 in1004.7 mb 0.00 in0.0 mm 0.00 in0.0 mm 0.00 in0.0 mm
03:20 AM 61.5°F16.4°C 59.8°F15.4°C 94% Calm Calm -- 29.67 in1004.7 mb 0.00 in0.0 mm 0.00 in0.0 mm 0.00 in0.0 mm
03:10 AM 61.5°F16.4°C 59.8°F15.4°C 94% Calm Calm -- 29.67 in1004.7 mb 0.00 in0.0 mm 0.00 in0.0 mm 0.00 in0.0 mm
03:00 AM 61.5°F16.4°C 59.8°F15.4°C 94% Calm Calm -- 29.68 in1005.1 mb 0.00 in0.0 mm 0.00 in0.0 mm 0.00 in0.0 mm
02:50 AM 61.5°F16.4°C 59.8°F15.4°C 94% Calm Calm -- 29.68 in1005.1 mb 0.00 in0.0 mm 0.00 in0.0 mm 0.00 in0.0 mm
02:40 AM 61.6°F16.4°C 59.8°F15.4°C 94% Calm Calm -- 29.68 in1005.1 mb 0.00 in0.0 mm 0.00 in0.0 mm 0.00 in0.0 mm
02:30 AM 61.6°F16.4°C 59.9°F15.5°C 94% Calm Calm -- 29.69 in1005.4 mb 0.00 in0.0 mm 0.00 in0.0 mm 0.00 in0.0 mm
02:20 AM 61.5°F16.4°C 59.8°F15.4°C 94% Calm Calm -- 29.69 in1005.4 mb 0.00 in0.0 mm 0.00 in0.0 mm 0.00 in0.0 mm
02:10 AM 61.5°F16.4°C 59.8°F15.4°C 94% Calm Calm -- 29.69 in1005.4 mb 0.00 in0.0 mm 0.00 in0.0 mm 0.00 in0.0 mm
02:00 AM 61.5°F16.4°C 59.8°F15.4°C 94% Calm Calm -- 29.70 in1005.8 mb 0.00 in0.0 mm 0.00 in0.0 mm 0.00 in0.0 mm
01:50 AM 61.6°F16.4°C 59.8°F15.4°C 94% Calm Calm -- 29.70 in1005.8 mb 0.00 in0.0 mm 0.00 in0.0 mm 0.00 in0.0 mm
01:40 AM 61.6°F16.4°C 59.9°F15.5°C 94% Calm Calm -- 29.70 in1005.8 mb 0.00 in0.0 mm 0.00 in0.0 mm 0.00 in0.0 mm
01:30 AM 61.6°F16.4°C 59.9°F15.5°C 94% Calm Calm -- 29.70 in1005.8 mb 0.00 in0.0 mm 0.00 in0.0 mm 0.00 in0.0 mm
01:20 AM 61.6°F16.4°C 59.9°F15.5°C 94% Calm Calm -- 29.70 in1005.8 mb 0.00 in0.0 mm 0.00 in0.0 mm 0.00 in0.0 mm
01:10 AM 61.5°F16.4°C 59.8°F15.4°C 94% Calm Calm -- 29.70 in1005.8 mb 0.00 in0.0 mm 0.00 in0.0 mm 0.00 in0.0 mm
01:00 AM 61.5°F16.4°C 59.8°F15.4°C 94% Calm Calm -- 29.71 in1006.1 mb 0.00 in0.0 mm 0.00 in0.0 mm 0.00 in0.0 mm
12:50 AM 61.5°F16.4°C 59.8°F15.4°C 94% Calm Calm -- 29.71 in1006.1 mb 0.00 in0.0 mm 0.00 in0.0 mm 0.00 in0.0 mm
12:40 AM 61.6°F16.4°C 59.9°F15.5°C 94% Calm Calm -- 29.71 in1006.1 mb 0.00 in0.0 mm 0.00 in0.0 mm 0.00 in0.0 mm
12:30 AM 61.6°F16.4°C 59.5°F15.3°C 93% Calm Calm -- 29.71 in1006.1 mb 0.00 in0.0 mm 0.00 in0.0 mm 0.00 in0.0 mm
12:20 AM 61.6°F16.4°C 59.6°F15.3°C 93% Calm Calm -- 29.71 in1006.1 mb 0.00 in0.0 mm 0.00 in0.0 mm 0.00 in0.0 mm
12:10 AM 61.6°F16.4°C 59.6°F15.3°C 93% Calm Calm -- 29.71 in1006.1 mb 0.00 in0.0 mm 0.00 in0.0 mm 0.00 in0.0 mm
12:00 AM 61.6°F16.4°C 59.6°F15.3°C 93% Calm Calm -- 29.71 in1006.1 mb 0.00 in0.0 mm 0.00 in0.0 mm 0.00 in0.0 mm